Bright Ocean — HOGQ — position and weather

sailwx.info

Track history (hours):
 
Tides and Currents Weather Stations Pressure Air Temp Water Temp Dewpoint Dewpoint Depression Visibility Wind Speed Wind Dir Waves Ship Positions

Bright Ocean

Last reported at 2015-Apr-19 08:33 UTC. Time now 2015-May-04 03:58 UTC.
Position N 48°30' W 129°14'.
Warning: this ship's position is 14 days out of date.

Length 178 m; draft 10.7 m.

Type: Cargo ship. MMSI: 373816000.

Date/timePositionNaut miles runAvg speedWind from/ knotsBaromVisibWave heightAir tempDewpointWater temp
2015-Apr-19 08:33N 48°30' W 129°14'1111.3
2015-Apr-19 07:33N 48°30' W 128°57'1111.2
2015-Apr-19 06:33N 48°30' W 128°40'1111.1
2015-Apr-19 05:34N 48°30' W 128°24'1310.8
2015-Apr-19 04:21N 48°30' W 128°04'810.7
2015-Apr-19 03:33N 48°30' W 127°51'1110.4
2015-Apr-19 02:33N 48°31' W 127°35'1010.3
2015-Apr-19 01:34N 48°31' W 127°20'1310.3
2015-Apr-19 00:17N 48°30' W 126°60'810.5
2015-Apr-18 23:33N 48°30' W 126°48'1010.3
2015-Apr-18 22:34N 48°30' W 126°33'1110.6
2015-Apr-18 21:33N 48°31' W 126°17'1110.8
2015-Apr-18 20:33N 48°30' W 126°00'1110.8
2015-Apr-18 19:33N 48°31' W 125°44'1110.9
2015-Apr-18 18:33N 48°30' W 125°28'1111.4
2015-Apr-18 17:33N 48°31' W 125°10'1111.1
2015-Apr-18 16:33N 48°31' W 124°54'1212.4
2015-Apr-18 15:33N 48°28' W 124°35'1313.3
2015-Apr-18 14:33N 48°23' W 124°17'1313.5
2015-Apr-18 13:34N 48°18' W 123°58'1313.1
2015-Apr-18 12:33N 48°16' W 123°39'1010.4
2015-Apr-18 11:33N 48°21' W 123°25'9 9.0
2015-Apr-18 10:34N 48°25' W 123°13'1211.9
2015-Apr-18 09:33N 48°37' W 123°14'9 9.2
2015-Apr-18 08:33N 48°45' W 123°07'8 8.0
2015-Apr-18 07:33N 48°53' W 123°06'1312.8
2015-Apr-18 06:33N 49°01' W 123°21'1312.6
2015-Apr-18 05:33N 49°14' W 123°21'10 9.8
2015-Apr-18 04:33N 49°19' W 123°08'3 2.7
2015-Apr-18 03:32N 49°18' W 123°04'0 0.0
2015-Apr-18 02:32N 49°18' W 123°04'0 0.0
2015-Apr-18 01:32N 49°18' W 123°04'0 0.0
2015-Apr-18 00:29N 49°18' W 123°04'0 0.0
2015-Apr-17 23:32N 49°18' W 123°04'0 0.0
2015-Apr-17 22:32N 49°18' W 123°04'0 0.0
2015-Apr-17 21:32N 49°18' W 123°04'0 0.0
2015-Apr-17 20:32N 49°18' W 123°04'0 0.0
2015-Apr-17 19:32N 49°18' W 123°04'0 0.0
2015-Apr-17 18:32N 49°18' W 123°04'0 0.0
2015-Apr-17 17:29N 49°18' W 123°04'0 0.0
2015-Apr-17 16:32N 49°18' W 123°04'0 0.0
2015-Apr-17 15:32N 49°18' W 123°04'0 0.0
2015-Apr-17 14:32N 49°18' W 123°04'0 0.0
2015-Apr-17 13:32N 49°18' W 123°04'0 0.0
2015-Apr-17 12:32N 49°18' W 123°04'0 0.0
2015-Apr-17 11:32N 49°18' W 123°04'0 0.0
2015-Apr-17 10:32N 49°18' W 123°04'0 0.0
2015-Apr-17 09:32N 49°18' W 123°04'0 0.0
2015-Apr-17 08:32N 49°18' W 123°04'0 0.0
2015-Apr-17 07:32N 49°18' W 123°04'0 0.0
2015-Apr-17 06:32N 49°18' W 123°04'0 0.0
2015-Apr-17 05:32N 49°18' W 123°04'0 0.0
2015-Apr-17 04:29N 49°18' W 123°04'0 0.0
2015-Apr-17 03:32N 49°18' W 123°04'0 0.0
2015-Apr-17 02:32N 49°18' W 123°04'0 0.0
2015-Apr-17 01:32N 49°18' W 123°04'0 0.0
2015-Apr-17 00:29N 49°18' W 123°04'0 0.0
2015-Apr-16 23:32N 49°18' W 123°04'0 0.0
2015-Apr-16 22:32N 49°18' W 123°04'0 0.0
2015-Apr-16 21:32N 49°18' W 123°04'0 0.0
2015-Apr-16 20:32N 49°18' W 123°04'0 0.0
2015-Apr-16 19:32N 49°18' W 123°04'0 0.0
2015-Apr-16 18:32N 49°18' W 123°04'0 0.0
2015-Apr-16 17:32N 49°18' W 123°04'0 0.0
2015-Apr-16 16:32N 49°18' W 123°04'0 0.0
2015-Apr-16 15:32N 49°18' W 123°04'0 0.0
2015-Apr-16 14:32N 49°18' W 123°04'0 0.0
2015-Apr-16 13:32N 49°18' W 123°04'0 0.0
2015-Apr-16 12:32N 49°18' W 123°04'0 0.0
2015-Apr-16 11:32N 49°18' W 123°04'0 0.0
2015-Apr-16 10:32N 49°18' W 123°04'0 0.0
2015-Apr-16 09:32N 49°18' W 123°04'0 0.0
2015-Apr-16 08:32N 49°18' W 123°04'0 0.0
2015-Apr-16 07:32N 49°18' W 123°04'0 0.0
2015-Apr-16 06:32N 49°18' W 123°04'0 0.0
2015-Apr-16 05:32N 49°18' W 123°04'0 0.0
2015-Apr-16 04:32N 49°18' W 123°04'0 0.0
2015-Apr-16 03:32N 49°18' W 123°04'0 0.0
2015-Apr-16 02:32N 49°18' W 123°04'0 0.0
2015-Apr-16 01:32N 49°18' W 123°04'0 0.0
2015-Apr-16 00:32N 49°18' W 123°04'0 0.0
2015-Apr-15 23:32N 49°18' W 123°04'0 0.0
2015-Apr-15 22:32N 49°18' W 123°04'0 0.0
2015-Apr-15 21:32N 49°18' W 123°04'0 0.0
2015-Apr-15 20:32N 49°18' W 123°04'0 0.0
2015-Apr-15 19:32N 49°18' W 123°04'0 0.0
2015-Apr-15 18:32N 49°18' W 123°04'0 0.0
2015-Apr-15 17:32N 49°18' W 123°04'0 0.0
2015-Apr-15 16:32N 49°18' W 123°04'0 0.0
2015-Apr-15 15:32N 49°18' W 123°04'0 0.0
2015-Apr-15 14:32N 49°18' W 123°04'0 0.0
2015-Apr-15 13:32N 49°18' W 123°04'0 0.0
2015-Apr-15 12:32N 49°18' W 123°04'0 0.0
2015-Apr-15 11:32N 49°18' W 123°04'0 0.0
2015-Apr-15 10:32N 49°18' W 123°04'0 0.0
2015-Apr-15 09:32N 49°18' W 123°04'0 0.0
2015-Apr-15 08:32N 49°18' W 123°04'0 0.0
2015-Apr-15 07:32N 49°18' W 123°04'0 0.0
2015-Apr-15 06:32N 49°18' W 123°04'0 0.0
2015-Apr-15 05:32N 49°18' W 123°04'0 0.0
2015-Apr-15 04:32N 49°18' W 123°04'0 0.0
2015-Apr-15 03:29N 49°18' W 123°04'0 0.0
2015-Apr-15 02:32N 49°18' W 123°04'0 0.0
2015-Apr-15 01:29N 49°18' W 123°04'0 0.0
2015-Apr-15 00:32N 49°18' W 123°04'0 0.0
2015-Apr-14 23:32N 49°18' W 123°04'0 0.0
2015-Apr-14 22:32N 49°18' W 123°04'0 0.0
2015-Apr-14 21:32N 49°18' W 123°04'0 0.0
2015-Apr-14 20:32N 49°18' W 123°04'0 0.0
2015-Apr-14 19:32N 49°18' W 123°04'0 0.0
2015-Apr-14 18:32N 49°18' W 123°04'0 0.0
2015-Apr-14 17:32N 49°18' W 123°04'0 0.0
2015-Apr-14 16:32N 49°18' W 123°04'0 0.0
2015-Apr-14 15:32N 49°18' W 123°04'0 0.0
2015-Apr-14 14:32N 49°18' W 123°04'0 0.0
2015-Apr-14 13:32N 49°18' W 123°04'0 0.0
2015-Apr-14 12:32N 49°18' W 123°04'0 0.0
2015-Apr-14 11:32N 49°18' W 123°04'0 0.0
2015-Apr-14 10:32N 49°18' W 123°04'0 0.0
2015-Apr-14 09:32N 49°18' W 123°04'0 0.0
2015-Apr-14 08:32N 49°18' W 123°04'0 0.0
2015-Apr-14 07:32N 49°18' W 123°04'0 0.0
2015-Apr-14 06:32N 49°18' W 123°04'0 0.0
2015-Apr-14 05:32N 49°18' W 123°04'0 0.0
2015-Apr-14 04:32N 49°18' W 123°04'0 0.0
2015-Apr-14 03:32N 49°18' W 123°04'0 0.0
2015-Apr-14 02:32N 49°18' W 123°04'0 0.0
2015-Apr-14 01:29N 49°18' W 123°04'0 0.0
2015-Apr-14 00:32N 49°18' W 123°04'0 0.0
2015-Apr-13 23:32N 49°18' W 123°04'0 0.0
2015-Apr-13 22:32N 49°18' W 123°04'0 0.0
2015-Apr-13 21:32N 49°18' W 123°04'0 0.0
2015-Apr-13 20:32N 49°18' W 123°04'0 0.0
2015-Apr-13 19:32N 49°18' W 123°04'0 0.0
2015-Apr-13 18:32N 49°18' W 123°04'0 0.0
2015-Apr-13 17:32N 49°18' W 123°04'0 0.0
2015-Apr-13 16:32N 49°18' W 123°04'0 0.0
2015-Apr-13 15:32N 49°18' W 123°04'0 0.0
2015-Apr-13 14:32N 49°18' W 123°04'0 0.0
2015-Apr-13 13:32N 49°18' W 123°04'0 0.0
2015-Apr-13 12:32N 49°18' W 123°04'0 0.0
2015-Apr-13 11:32N 49°18' W 123°04'0 0.0
2015-Apr-13 10:32N 49°18' W 123°04'0 0.0
2015-Apr-13 09:32N 49°18' W 123°04'0 0.0
2015-Apr-13 08:32N 49°18' W 123°04'0 0.0
2015-Apr-13 07:32N 49°18' W 123°04'0 0.0
2015-Apr-13 06:32N 49°18' W 123°04'0 0.0
2015-Apr-13 05:32N 49°18' W 123°04'0 0.0
2015-Apr-13 04:32N 49°18' W 123°04'0 0.0
2015-Apr-13 03:32N 49°18' W 123°04'0 0.0
2015-Apr-13 02:32N 49°18' W 123°04'0 0.0
2015-Apr-13 01:32N 49°18' W 123°04'0 0.0
2015-Apr-13 00:32N 49°18' W 123°04'0 0.0
2015-Apr-12 23:32N 49°18' W 123°04'0 0.0
2015-Apr-12 22:32N 49°18' W 123°04'0 0.0
2015-Apr-12 21:32N 49°18' W 123°04'0 0.0
2015-Apr-12 20:32N 49°18' W 123°04'0 0.0
2015-Apr-12 19:32N 49°18' W 123°04'0 0.0
2015-Apr-12 18:32N 49°18' W 123°04'0 0.0
2015-Apr-12 17:32N 49°18' W 123°04'0 0.0
2015-Apr-12 16:32N 49°18' W 123°04'0 0.0
2015-Apr-12 15:32N 49°18' W 123°04'0 0.0
2015-Apr-12 14:32N 49°18' W 123°04'0 0.0
2015-Apr-12 13:32N 49°18' W 123°04'0 0.0
2015-Apr-12 12:32N 49°18' W 123°04'0 0.0
2015-Apr-12 11:32N 49°18' W 123°04'0 0.0
2015-Apr-12 10:32N 49°18' W 123°04'0 0.0
2015-Apr-12 09:32N 49°18' W 123°04'0 0.0
2015-Apr-12 08:32N 49°18' W 123°04'0 0.0
2015-Apr-12 07:29N 49°18' W 123°04'0 0.0
2015-Apr-12 06:32N 49°18' W 123°04'0 0.0
2015-Apr-12 05:32N 49°18' W 123°04'0 0.0
2015-Apr-12 04:29N 49°18' W 123°04'0 0.0
2015-Apr-12 03:32N 49°18' W 123°04'0 0.0
2015-Apr-12 02:29N 49°18' W 123°04'0 0.0
2015-Apr-12 01:32N 49°18' W 123°04'0 0.0
2015-Apr-12 00:32N 49°18' W 123°04'0 0.0
2015-Apr-11 23:32N 49°18' W 123°04'0 0.0
2015-Apr-11 22:32N 49°18' W 123°04'0 0.0
2015-Apr-11 21:32N 49°18' W 123°04'0 0.0
2015-Apr-11 20:32N 49°18' W 123°04'0 0.0
2015-Apr-11 19:32N 49°18' W 123°04'0 0.0
2015-Apr-11 18:32N 49°18' W 123°04'0 0.0
2015-Apr-11 17:32N 49°18' W 123°04'0 0.0
2015-Apr-11 16:32N 49°18' W 123°04'0 0.0
2015-Apr-11 15:32N 49°18' W 123°04'0 0.0
2015-Apr-11 14:32N 49°18' W 123°04'0 0.0
2015-Apr-11 13:29N 49°18' W 123°04'0 0.0
2015-Apr-11 12:32N 49°18' W 123°04'0 0.0
2015-Apr-11 11:32N 49°18' W 123°04'0 0.0
2015-Apr-11 10:32N 49°18' W 123°04'0 0.0
2015-Apr-11 09:32N 49°18' W 123°04'0 0.0
2015-Apr-11 08:32N 49°18' W 123°04'0 0.0
2015-Apr-11 07:32N 49°18' W 123°04'0 0.0
2015-Apr-11 06:32N 49°18' W 123°04'0 0.0
2015-Apr-11 05:32N 49°18' W 123°04'0 0.0
2015-Apr-11 04:32N 49°18' W 123°04'0 0.0
2015-Apr-11 03:32N 49°18' W 123°04'0 0.0
2015-Apr-11 02:32N 49°18' W 123°04'0 0.0
2015-Apr-11 01:32N 49°18' W 123°04'0 0.0
2015-Apr-11 00:32N 49°18' W 123°04'0 0.0
2015-Apr-10 23:32N 49°18' W 123°04'0 0.0
2015-Apr-10 22:32N 49°18' W 123°04'0 0.0
2015-Apr-10 21:32N 49°18' W 123°04'0 0.0
2015-Apr-10 20:32N 49°18' W 123°04'0 0.0
2015-Apr-10 19:32N 49°18' W 123°04'0 0.0
2015-Apr-10 18:32N 49°18' W 123°04'0 0.0
2015-Apr-10 17:32N 49°18' W 123°04'0 0.0
2015-Apr-10 16:32N 49°18' W 123°04'0 0.0
2015-Apr-10 15:32N 49°18' W 123°04'0 0.0
2015-Apr-10 14:32N 49°18' W 123°04'0 0.0
2015-Apr-10 13:32N 49°18' W 123°04'0 0.0
2015-Apr-10 12:32N 49°18' W 123°04'0 0.0
2015-Apr-10 11:32N 49°18' W 123°04'0 0.0
2015-Apr-10 10:32N 49°18' W 123°04'0 0.0
2015-Apr-10 09:32N 49°18' W 123°04'0 0.0
2015-Apr-10 08:32N 49°18' W 123°04'0 0.0
2015-Apr-10 07:32N 49°18' W 123°04'0 0.0
2015-Apr-10 06:32N 49°18' W 123°04'0 0.0
2015-Apr-10 05:32N 49°18' W 123°04'0 0.0
2015-Apr-10 04:32N 49°18' W 123°04'0 0.0
2015-Apr-10 03:32N 49°18' W 123°04'0 0.0
2015-Apr-10 02:32N 49°18' W 123°04'0 0.0
2015-Apr-10 01:29N 49°18' W 123°04'0 0.0
2015-Apr-10 00:32N 49°18' W 123°04'0 0.0
2015-Apr-09 23:32N 49°18' W 123°04'0 0.0
2015-Apr-09 22:32N 49°18' W 123°04'0 0.0
2015-Apr-09 21:32N 49°18' W 123°04'0 0.0
2015-Apr-09 20:29N 49°18' W 123°04'0 0.0
2015-Apr-09 19:32N 49°18' W 123°04'0 0.0
2015-Apr-09 18:32N 49°18' W 123°04'0 0.0
2015-Apr-09 17:32N 49°18' W 123°04'0 0.0
2015-Apr-09 16:29N 49°18' W 123°04'0 0.0
2015-Apr-09 15:32N 49°18' W 123°04'0 0.0
2015-Apr-09 14:32N 49°18' W 123°04'0 0.2
2015-Apr-09 13:33N 49°18' W 123°04'1 0.9
2015-Apr-09 12:31N 49°18' W 123°05'0 0.2
2015-Apr-09 11:31N 49°18' W 123°06'0 0.1
2015-Apr-09 10:31N 49°18' W 123°06'0 0.0
2015-Apr-09 09:31N 49°18' W 123°06'  
Track history (hours):
 
Tides and Currents Weather Stations Pressure Air Temp Water Temp Dewpoint Dewpoint Depression Visibility Wind Speed Wind Dir Waves Ship Positions

Bright Ocean

Last reported at 2015-Apr-19 08:33 UTC. Time now 2015-May-04 03:58 UTC.
Position N 48°30' W 129°14'.
Warning: this ship's position is 14 days out of date.

Length 178 m; draft 10.7 m.

Type: Cargo ship. MMSI: 373816000.

Date/timePositionNaut miles runAvg speedWind from/ knotsBaromVisibWave heightAir tempDewpointWater temp
2015-Apr-19 08:33N 48°30' W 129°14'1111.3
2015-Apr-19 07:33N 48°30' W 128°57'1111.2
2015-Apr-19 06:33N 48°30' W 128°40'1111.1
2015-Apr-19 05:34N 48°30' W 128°24'1310.8
2015-Apr-19 04:21N 48°30' W 128°04'810.7
2015-Apr-19 03:33N 48°30' W 127°51'1110.4
2015-Apr-19 02:33N 48°31' W 127°35'1010.3
2015-Apr-19 01:34N 48°31' W 127°20'1310.3
2015-Apr-19 00:17N 48°30' W 126°60'810.5
2015-Apr-18 23:33N 48°30' W 126°48'1010.3
2015-Apr-18 22:34N 48°30' W 126°33'1110.6
2015-Apr-18 21:33N 48°31' W 126°17'1110.8
2015-Apr-18 20:33N 48°30' W 126°00'1110.8
2015-Apr-18 19:33N 48°31' W 125°44'1110.9
2015-Apr-18 18:33N 48°30' W 125°28'1111.4
2015-Apr-18 17:33N 48°31' W 125°10'1111.1
2015-Apr-18 16:33N 48°31' W 124°54'1212.4
2015-Apr-18 15:33N 48°28' W 124°35'1313.3
2015-Apr-18 14:33N 48°23' W 124°17'1313.5
2015-Apr-18 13:34N 48°18' W 123°58'1313.1
2015-Apr-18 12:33N 48°16' W 123°39'1010.4
2015-Apr-18 11:33N 48°21' W 123°25'9 9.0
2015-Apr-18 10:34N 48°25' W 123°13'1211.9
2015-Apr-18 09:33N 48°37' W 123°14'9 9.2
2015-Apr-18 08:33N 48°45' W 123°07'8 8.0
2015-Apr-18 07:33N 48°53' W 123°06'1312.8
2015-Apr-18 06:33N 49°01' W 123°21'1312.6
2015-Apr-18 05:33N 49°14' W 123°21'10 9.8
2015-Apr-18 04:33N 49°19' W 123°08'3 2.7
2015-Apr-18 03:32N 49°18' W 123°04'0 0.0
2015-Apr-18 02:32N 49°18' W 123°04'0 0.0
2015-Apr-18 01:32N 49°18' W 123°04'0 0.0
2015-Apr-18 00:29N 49°18' W 123°04'0 0.0
2015-Apr-17 23:32N 49°18' W 123°04'0 0.0
2015-Apr-17 22:32N 49°18' W 123°04'0 0.0
2015-Apr-17 21:32N 49°18' W 123°04'0 0.0
2015-Apr-17 20:32N 49°18' W 123°04'0 0.0
2015-Apr-17 19:32N 49°18' W 123°04'0 0.0
2015-Apr-17 18:32N 49°18' W 123°04'0 0.0
2015-Apr-17 17:29N 49°18' W 123°04'0 0.0
2015-Apr-17 16:32N 49°18' W 123°04'0 0.0
2015-Apr-17 15:32N 49°18' W 123°04'0 0.0
2015-Apr-17 14:32N 49°18' W 123°04'0 0.0
2015-Apr-17 13:32N 49°18' W 123°04'0 0.0
2015-Apr-17 12:32N 49°18' W 123°04'0 0.0
2015-Apr-17 11:32N 49°18' W 123°04'0 0.0
2015-Apr-17 10:32N 49°18' W 123°04'0 0.0
2015-Apr-17 09:32N 49°18' W 123°04'0 0.0
2015-Apr-17 08:32N 49°18' W 123°04'0 0.0
2015-Apr-17 07:32N 49°18' W 123°04'0 0.0
2015-Apr-17 06:32N 49°18' W 123°04'0 0.0
2015-Apr-17 05:32N 49°18' W 123°04'0 0.0
2015-Apr-17 04:29N 49°18' W 123°04'0 0.0
2015-Apr-17 03:32N 49°18' W 123°04'0 0.0
2015-Apr-17 02:32N 49°18' W 123°04'0 0.0
2015-Apr-17 01:32N 49°18' W 123°04'0 0.0
2015-Apr-17 00:29N 49°18' W 123°04'0 0.0
2015-Apr-16 23:32N 49°18' W 123°04'0 0.0
2015-Apr-16 22:32N 49°18' W 123°04'0 0.0
2015-Apr-16 21:32N 49°18' W 123°04'0 0.0
2015-Apr-16 20:32N 49°18' W 123°04'0 0.0
2015-Apr-16 19:32N 49°18' W 123°04'0 0.0
2015-Apr-16 18:32N 49°18' W 123°04'0 0.0
2015-Apr-16 17:32N 49°18' W 123°04'0 0.0
2015-Apr-16 16:32N 49°18' W 123°04'0 0.0
2015-Apr-16 15:32N 49°18' W 123°04'0 0.0
2015-Apr-16 14:32N 49°18' W 123°04'0 0.0
2015-Apr-16 13:32N 49°18' W 123°04'0 0.0
2015-Apr-16 12:32N 49°18' W 123°04'0 0.0
2015-Apr-16 11:32N 49°18' W 123°04'0 0.0
2015-Apr-16 10:32N 49°18' W 123°04'0 0.0
2015-Apr-16 09:32N 49°18' W 123°04'0 0.0
2015-Apr-16 08:32N 49°18' W 123°04'0 0.0
2015-Apr-16 07:32N 49°18' W 123°04'0 0.0
2015-Apr-16 06:32N 49°18' W 123°04'0 0.0
2015-Apr-16 05:32N 49°18' W 123°04'0 0.0
2015-Apr-16 04:32N 49°18' W 123°04'0 0.0
2015-Apr-16 03:32N 49°18' W 123°04'0 0.0
2015-Apr-16 02:32N 49°18' W 123°04'0 0.0
2015-Apr-16 01:32N 49°18' W 123°04'0 0.0
2015-Apr-16 00:32N 49°18' W 123°04'0 0.0
2015-Apr-15 23:32N 49°18' W 123°04'0 0.0
2015-Apr-15 22:32N 49°18' W 123°04'0 0.0
2015-Apr-15 21:32N 49°18' W 123°04'0 0.0
2015-Apr-15 20:32N 49°18' W 123°04'0 0.0
2015-Apr-15 19:32N 49°18' W 123°04'0 0.0
2015-Apr-15 18:32N 49°18' W 123°04'0 0.0
2015-Apr-15 17:32N 49°18' W 123°04'0 0.0
2015-Apr-15 16:32N 49°18' W 123°04'0 0.0
2015-Apr-15 15:32N 49°18' W 123°04'0 0.0
2015-Apr-15 14:32N 49°18' W 123°04'0 0.0
2015-Apr-15 13:32N 49°18' W 123°04'0 0.0
2015-Apr-15 12:32N 49°18' W 123°04'0 0.0
2015-Apr-15 11:32N 49°18' W 123°04'0 0.0
2015-Apr-15 10:32N 49°18' W 123°04'0 0.0
2015-Apr-15 09:32N 49°18' W 123°04'0 0.0
2015-Apr-15 08:32N 49°18' W 123°04'0 0.0
2015-Apr-15 07:32N 49°18' W 123°04'0 0.0
2015-Apr-15 06:32N 49°18' W 123°04'0 0.0
2015-Apr-15 05:32N 49°18' W 123°04'0 0.0
2015-Apr-15 04:32N 49°18' W 123°04'0 0.0
2015-Apr-15 03:29N 49°18' W 123°04'0 0.0
2015-Apr-15 02:32N 49°18' W 123°04'0 0.0
2015-Apr-15 01:29N 49°18' W 123°04'0 0.0
2015-Apr-15 00:32N 49°18' W 123°04'0 0.0
2015-Apr-14 23:32N 49°18' W 123°04'0 0.0
2015-Apr-14 22:32N 49°18' W 123°04'0 0.0
2015-Apr-14 21:32N 49°18' W 123°04'0 0.0
2015-Apr-14 20:32N 49°18' W 123°04'0 0.0
2015-Apr-14 19:32N 49°18' W 123°04'0 0.0
2015-Apr-14 18:32N 49°18' W 123°04'0 0.0
2015-Apr-14 17:32N 49°18' W 123°04'0 0.0
2015-Apr-14 16:32N 49°18' W 123°04'0 0.0
2015-Apr-14 15:32N 49°18' W 123°04'0 0.0
2015-Apr-14 14:32N 49°18' W 123°04'0 0.0
2015-Apr-14 13:32N 49°18' W 123°04'0 0.0
2015-Apr-14 12:32N 49°18' W 123°04'0 0.0
2015-Apr-14 11:32N 49°18' W 123°04'0 0.0
2015-Apr-14 10:32N 49°18' W 123°04'0 0.0
2015-Apr-14 09:32N 49°18' W 123°04'0 0.0
2015-Apr-14 08:32N 49°18' W 123°04'0 0.0
2015-Apr-14 07:32N 49°18' W 123°04'0 0.0
2015-Apr-14 06:32N 49°18' W 123°04'0 0.0
2015-Apr-14 05:32N 49°18' W 123°04'0 0.0
2015-Apr-14 04:32N 49°18' W 123°04'0 0.0
2015-Apr-14 03:32N 49°18' W 123°04'0 0.0
2015-Apr-14 02:32N 49°18' W 123°04'0 0.0
2015-Apr-14 01:29N 49°18' W 123°04'0 0.0
2015-Apr-14 00:32N 49°18' W 123°04'0 0.0
2015-Apr-13 23:32N 49°18' W 123°04'0 0.0
2015-Apr-13 22:32N 49°18' W 123°04'0 0.0
2015-Apr-13 21:32N 49°18' W 123°04'0 0.0
2015-Apr-13 20:32N 49°18' W 123°04'0 0.0
2015-Apr-13 19:32N 49°18' W 123°04'0 0.0
2015-Apr-13 18:32N 49°18' W 123°04'0 0.0
2015-Apr-13 17:32N 49°18' W 123°04'0 0.0
2015-Apr-13 16:32N 49°18' W 123°04'0 0.0
2015-Apr-13 15:32N 49°18' W 123°04'0 0.0
2015-Apr-13 14:32N 49°18' W 123°04'0 0.0
2015-Apr-13 13:32N 49°18' W 123°04'0 0.0
2015-Apr-13 12:32N 49°18' W 123°04'0 0.0
2015-Apr-13 11:32N 49°18' W 123°04'0 0.0
2015-Apr-13 10:32N 49°18' W 123°04'0 0.0
2015-Apr-13 09:32N 49°18' W 123°04'0 0.0
2015-Apr-13 08:32N 49°18' W 123°04'0 0.0
2015-Apr-13 07:32N 49°18' W 123°04'0 0.0
2015-Apr-13 06:32N 49°18' W 123°04'0 0.0
2015-Apr-13 05:32N 49°18' W 123°04'0 0.0
2015-Apr-13 04:32N 49°18' W 123°04'0 0.0
2015-Apr-13 03:32N 49°18' W 123°04'0 0.0
2015-Apr-13 02:32N 49°18' W 123°04'0 0.0
2015-Apr-13 01:32N 49°18' W 123°04'0 0.0
2015-Apr-13 00:32N 49°18' W 123°04'0 0.0
2015-Apr-12 23:32N 49°18' W 123°04'0 0.0
2015-Apr-12 22:32N 49°18' W 123°04'0 0.0
2015-Apr-12 21:32N 49°18' W 123°04'0 0.0
2015-Apr-12 20:32N 49°18' W 123°04'0 0.0
2015-Apr-12 19:32N 49°18' W 123°04'0 0.0
2015-Apr-12 18:32N 49°18' W 123°04'0 0.0
2015-Apr-12 17:32N 49°18' W 123°04'0 0.0
2015-Apr-12 16:32N 49°18' W 123°04'0 0.0
2015-Apr-12 15:32N 49°18' W 123°04'0 0.0
2015-Apr-12 14:32N 49°18' W 123°04'0 0.0
2015-Apr-12 13:32N 49°18' W 123°04'0 0.0
2015-Apr-12 12:32N 49°18' W 123°04'0 0.0
2015-Apr-12 11:32N 49°18' W 123°04'0 0.0
2015-Apr-12 10:32N 49°18' W 123°04'0 0.0
2015-Apr-12 09:32N 49°18' W 123°04'0 0.0
2015-Apr-12 08:32N 49°18' W 123°04'0 0.0
2015-Apr-12 07:29N 49°18' W 123°04'0 0.0
2015-Apr-12 06:32N 49°18' W 123°04'0 0.0
2015-Apr-12 05:32N 49°18' W 123°04'0 0.0
2015-Apr-12 04:29N 49°18' W 123°04'0 0.0
2015-Apr-12 03:32N 49°18' W 123°04'0 0.0
2015-Apr-12 02:29N 49°18' W 123°04'0 0.0
2015-Apr-12 01:32N 49°18' W 123°04'0 0.0
2015-Apr-12 00:32N 49°18' W 123°04'0 0.0
2015-Apr-11 23:32N 49°18' W 123°04'0 0.0
2015-Apr-11 22:32N 49°18' W 123°04'0 0.0
2015-Apr-11 21:32N 49°18' W 123°04'0 0.0
2015-Apr-11 20:32N 49°18' W 123°04'0 0.0
2015-Apr-11 19:32N 49°18' W 123°04'0 0.0
2015-Apr-11 18:32N 49°18' W 123°04'0 0.0
2015-Apr-11 17:32N 49°18' W 123°04'0 0.0
2015-Apr-11 16:32N 49°18' W 123°04'0 0.0
2015-Apr-11 15:32N 49°18' W 123°04'0 0.0
2015-Apr-11 14:32N 49°18' W 123°04'0 0.0
2015-Apr-11 13:29N 49°18' W 123°04'0 0.0
2015-Apr-11 12:32N 49°18' W 123°04'0 0.0
2015-Apr-11 11:32N 49°18' W 123°04'0 0.0
2015-Apr-11 10:32N 49°18' W 123°04'0 0.0
2015-Apr-11 09:32N 49°18' W 123°04'0 0.0
2015-Apr-11 08:32N 49°18' W 123°04'0 0.0
2015-Apr-11 07:32N 49°18' W 123°04'0 0.0
2015-Apr-11 06:32N 49°18' W 123°04'0 0.0
2015-Apr-11 05:32N 49°18' W 123°04'0 0.0
2015-Apr-11 04:32N 49°18' W 123°04'0 0.0
2015-Apr-11 03:32N 49°18' W 123°04'0 0.0
2015-Apr-11 02:32N 49°18' W 123°04'0 0.0
2015-Apr-11 01:32N 49°18' W 123°04'0 0.0
2015-Apr-11 00:32N 49°18' W 123°04'0 0.0
2015-Apr-10 23:32N 49°18' W 123°04'0 0.0
2015-Apr-10 22:32N 49°18' W 123°04'0 0.0
2015-Apr-10 21:32N 49°18' W 123°04'0 0.0
2015-Apr-10 20:32N 49°18' W 123°04'0 0.0
2015-Apr-10 19:32N 49°18' W 123°04'0 0.0
2015-Apr-10 18:32N 49°18' W 123°04'0 0.0
2015-Apr-10 17:32N 49°18' W 123°04'0 0.0
2015-Apr-10 16:32N 49°18' W 123°04'0 0.0
2015-Apr-10 15:32N 49°18' W 123°04'0 0.0
2015-Apr-10 14:32N 49°18' W 123°04'0 0.0
2015-Apr-10 13:32N 49°18' W 123°04'0 0.0
2015-Apr-10 12:32N 49°18' W 123°04'0 0.0
2015-Apr-10 11:32N 49°18' W 123°04'0 0.0
2015-Apr-10 10:32N 49°18' W 123°04'0 0.0
2015-Apr-10 09:32N 49°18' W 123°04'0 0.0
2015-Apr-10 08:32N 49°18' W 123°04'0 0.0
2015-Apr-10 07:32N 49°18' W 123°04'0 0.0
2015-Apr-10 06:32N 49°18' W 123°04'0 0.0
2015-Apr-10 05:32N 49°18' W 123°04'0 0.0
2015-Apr-10 04:32N 49°18' W 123°04'0 0.0
2015-Apr-10 03:32N 49°18' W 123°04'0 0.0
2015-Apr-10 02:32N 49°18' W 123°04'0 0.0
2015-Apr-10 01:29N 49°18' W 123°04'0 0.0
2015-Apr-10 00:32N 49°18' W 123°04'0 0.0
2015-Apr-09 23:32N 49°18' W 123°04'0 0.0
2015-Apr-09 22:32N 49°18' W 123°04'0 0.0
2015-Apr-09 21:32N 49°18' W 123°04'0 0.0
2015-Apr-09 20:29N 49°18' W 123°04'0 0.0
2015-Apr-09 19:32N 49°18' W 123°04'0 0.0
2015-Apr-09 18:32N 49°18' W 123°04'0 0.0
2015-Apr-09 17:32N 49°18' W 123°04'0 0.0
2015-Apr-09 16:29N 49°18' W 123°04'0 0.0
2015-Apr-09 15:32N 49°18' W 123°04'0 0.0
2015-Apr-09 14:32N 49°18' W 123°04'0 0.2
2015-Apr-09 13:33N 49°18' W 123°04'1 0.9
2015-Apr-09 12:31N 49°18' W 123°05'0 0.2
2015-Apr-09 11:31N 49°18' W 123°06'0 0.1
2015-Apr-09 10:31N 49°18' W 123°06'0 0.0
2015-Apr-09 09:31N 49°18' W 123°06'  

Dump ship's entire track history